Latest Weather Observations for Woomera

IDS60801

Issued at 6:51 am CST Tuesday 7 July 2020 (issued every 10 minutes, with the page automatically refreshed every 10 minutes)

About weather observations | Map of weather stations | Latest weather observations for SA | Other Formats
Station Details ID: 016001 Name: WOOMERA AERODROME Lat: -31.16 Lon: 136.81 Height: 166.6 m
Data from the previous 72 hours. | See also: Recent months at Woomera
Date/Time
CST
Temp
°C
App
Temp
°C
Dew
Point
°C
Rel
Hum
%
Delta-T
°C
Wind Press
QNH
hPa
Press
MSL
hPa
Rain since
9am
mm
Dir  Spd
km/h
Gust
km/h
Spd
kts
Gust
kts
07/06:30am 2.8 -0.9 -0.3 80 1.1 E 9 9 5 5 1030.2 1030.3 0.2
07/06:00am 2.9 -1.2 -0.2 80 1.1 ESE 11 11 6 6 1029.9 1030.0 0.2
07/05:30am 3.0 -1.4 0.1 81 1.1 E 13 13 7 7 1029.6 1029.8 0.2
07/05:00am 3.4 -0.7 -0.1 78 1.3 ESE 11 13 6 7 1029.5 1029.7 0.2
07/04:30am 3.6 -0.4 0.3 79 1.2 ESE 11 13 6 7 1029.4 1029.6 0.2
07/04:00am 3.6 -0.4 0.3 79 1.3 ESE 11 13 6 7 1029.3 1029.5 0.2
07/03:30am 3.6 -0.9 0.0 77 1.3 E 13 13 7 7 1029.3 1029.5 0.2
07/03:00am 4.2 -0.6 0.5 77 1.4 ESE 15 15 8 8 1029.4 1029.6 0.2
07/02:30am 4.2 -0.6 0.2 75 1.5 ESE 15 17 8 9 1029.4 1029.6 0.2
07/02:00am 4.9 -0.2 0.7 74 1.6 ESE 17 19 9 10 1029.6 1029.8 0.2
07/01:30am 5.6 0.2 1.0 72 1.8 ESE 19 20 10 11 1029.7 1029.9 0.2
07/01:00am 6.6 1.2 1.3 69 2.1 ESE 19 20 10 11 1029.7 1029.9 0.2
07/12:30am 7.4 2.5 1.7 67 2.3 ESE 17 20 9 11 1030.0 1030.1 0.2
07/12:00am 7.3 2.6 1.2 65 2.5 ESE 15 19 8 10 1030.2 1030.3 0.2
 
Date/Time
CST
Temp
°C
App
Temp
°C
Dew
Point
°C
Rel
Hum
%
Delta-T
°C
Wind Press
QNH
hPa
Press
MSL
hPa
Rain since
9am
mm
Dir  Spd
km/h
Gust
km/h
Spd
kts
Gust
kts
06/11:30pm 6.9 2.5 0.4 63 2.6 SE 13 17 7 9 1030.5 1030.6 0.2
06/11:00pm 7.9 4.8 1.1 62 2.8 SE 7 9 4 5 1030.7 1030.8 0.2
06/10:30pm 8.5 5.3 1.0 59 3.0 SE 7 9 4 5 1030.7 1030.8 0.2
06/10:00pm 9.2 6.3 1.4 58 3.2 ESE 6 7 3 4 1030.5 1030.6 0.2
06/09:30pm 9.2 6.1 1.1 57 3.3 ESE 7 7 4 4 1030.6 1030.7 0.2
06/09:00pm 9.6 6.5 1.3 56 3.4 E 7 9 4 5 1030.7 1030.8 0.2
06/08:30pm 9.6 6.4 1.0 55 3.5 E 7 9 4 5 1030.8 1030.9 0.2
06/08:00pm 9.8 6.6 0.9 54 3.7 E 7 9 4 5 1030.7 1030.8 0.2
06/07:30pm 10.5 7.0 1.1 52 3.9 ESE 9 13 5 7 1030.7 1030.8 0.2
06/07:00pm 11.0 7.5 1.3 51 4.1 ESE 9 11 5 6 1030.6 1030.7 0.2
06/06:30pm 11.6 8.2 2.1 52 4.1 ESE 9 11 5 6 1030.4 1030.5 0.2
06/06:00pm 12.5 8.8 2.1 49 4.5 ESE 11 15 6 8 1029.9 1030.0 0.2
06/05:30pm 13.5 9.0 2.1 46 5.0 SE 15 20 8 11 1029.7 1029.9 0.2
06/05:00pm 14.1 9.6 2.4 45 5.2 SE 15 19 8 10 1029.9 1030.0 0.2
06/04:30pm 14.6 11.7 2.5 44 5.4 SE 7 11 4 6 1030.1 1030.2 0.2
06/04:00pm 14.9 10.4 2.4 43 5.6 ESE 15 17 8 9 1030.0 1030.1 0.2
06/03:30pm 15.2 12.3 2.7 43 5.6 E 7 11 4 6 1029.9 1030.0 0.2
06/03:00pm 15.2 11.1 2.4 42 5.7 E 13 17 7 9 1029.9 1030.0 0.2
06/02:30pm 14.7 12.4 2.6 44 5.4 SE 4 11 2 6 1030.1 1030.2 0.2
06/02:00pm 14.6 10.6 3.1 46 5.2 ESE 13 17 7 9 1030.4 1030.5 0.2
06/01:30pm 14.6 12.0 3.1 46 5.2 NE 6 9 3 5 1030.6 1030.7 0.2
06/01:00pm 14.6 11.4 3.1 46 5.2 ENE 9 17 5 9 1030.9 1031.0 0.2
06/12:30pm 13.8 10.3 3.3 49 4.7 E 11 15 6 8 1031.4 1031.5 0.0
06/12:00pm 13.8 10.5 4.7 54 4.2 ENE 11 17 6 9 1031.9 1032.1 0.0
06/11:30am 12.9 8.9 4.8 58 3.7 ENE 15 20 8 11 1032.3 1032.5 0.0
06/11:00am 12.1 8.3 5.7 65 3.0 E 15 20 8 11 1032.5 1032.7 0.0
06/10:30am 10.2 6.1 6.0 75 1.9 ESE 17 20 9 11 1032.7 1032.9 0.0
06/10:00am 9.2 5.5 8.0 92 0.6 ESE 17 20 9 11 1032.8 1033.0 0.0
06/09:32am 8.2 4.9 8.1 99 0.0 ESE 15 17 8 9 1032.7 1032.9 0.0
06/09:30am 8.0 4.7 7.9 99 0.0 ESE 15 17 8 9 1032.7 1032.9 0.0
06/09:25am 7.9 4.5 7.8 99 0.0 SE 15 17 8 9 1032.7 1032.9 0.0
06/09:00am 6.9 2.9 6.8 99 0.0 ESE 17 20 9 11 1032.3 1032.5 0.0
06/08:30am 6.3 2.6 6.2 99 0.0 ESE 15 19 8 10 1032.0 1032.2 0.0
06/08:00am 5.9 2.1 5.8 99 0.0 SE 15 17 8 9 1031.8 1031.9 0.0
06/07:30am 5.8 1.6 5.7 99 0.0 SE 17 20 9 11 1031.7 1031.8 0.0
06/07:00am 5.9 1.1 5.8 99 0.0 SE 20 20 11 11 1031.3 1031.4 0.0
06/06:30am 6.1 2.3 6.0 99 0.0 SE 15 17 8 9 1031.1 1031.2 0.0
06/06:00am 5.7 1.1 5.6 99 0.0 SE 19 20 10 11 1030.8 1030.9 0.0
06/05:30am 5.6 1.4 5.5 99 0.0 SE 17 20 9 11 1030.5 1030.6 0.0
06/05:00am 6.0 3.0 5.9 99 0.0 ESE 11 13 6 7 1030.2 1030.3 0.0
06/04:30am 6.4 2.3 6.3 99 0.0 SE 17 22 9 12 1030.2 1030.3 0.0
06/04:23am 6.7 3.0 6.4 98 0.1 ESE 15 22 8 12 1030.2 1030.3 0.0
06/04:16am 6.6 2.9 6.3 98 0.1 ESE 15 17 8 9 1030.1 1030.2 0.0
06/04:00am 6.7 3.0 6.3 97 0.2 SE 15 17 8 9 1030.2 1030.3 0.0
06/03:30am 6.8 2.7 6.2 96 0.3 SE 17 19 9 10 1030.2 1030.3 0.0
06/03:00am 7.4 3.4 6.7 95 0.3 SE 17 22 9 12 1030.3 1030.4 0.0
06/02:30am 7.9 3.9 6.8 93 0.5 SE 17 19 9 10 1030.5 1030.6 0.0
06/02:00am 8.2 4.3 7.0 92 0.6 SE 17 20 9 11 1030.7 1030.8 0.0
06/01:30am 7.6 3.9 6.1 90 0.7 SSE 15 19 8 10 1030.6 1030.7 0.0
06/01:00am 7.7 3.5 5.7 87 0.9 SSE 17 19 9 10 1030.8 1030.9 0.0
06/12:30am 7.7 4.2 5.3 85 1.1 S 13 15 7 8 1031.0 1031.1 0.0
06/12:00am 8.8 5.8 6.1 83 1.2 SE 11 15 6 8 1031.0 1031.1 0.0
 
Date/Time
CST
Temp
°C
App
Temp
°C
Dew
Point
°C
Rel
Hum
%
Delta-T
°C
Wind Press
QNH
hPa
Press
MSL
hPa
Rain since
9am
mm
Dir  Spd
km/h
Gust
km/h
Spd
kts
Gust
kts
05/11:30pm 9.0 5.6 5.7 80 1.5 SE 13 15 7 8 1031.0 1031.1 0.0
05/11:00pm 10.0 6.3 6.3 78 1.7 SE 15 20 8 11 1031.1 1031.2 0.0
05/10:30pm 9.8 6.4 6.0 77 1.8 SSE 13 15 7 8 1030.9 1031.0 0.0
05/10:00pm 10.3 6.9 5.9 74 2.0 SSE 13 15 7 8 1030.9 1031.0 0.0
05/09:30pm 10.1 6.1 5.1 71 2.3 SSE 15 17 8 9 1030.8 1030.9 0.0
05/09:00pm 10.6 7.9 5.6 71 2.3 SSW 9 11 5 6 1030.5 1030.6 0.0
05/08:30pm 10.8 8.5 5.6 70 2.4 SW 7 9 4 5 1030.2 1030.3 0.0
05/08:00pm 11.0 8.6 5.3 68 2.6 SW 7 9 4 5 1030.1 1030.2 0.0
05/07:30pm 11.3 8.2 5.4 67 2.7 SW 11 13 6 7 1030.0 1030.1 0.0
05/07:00pm 11.4 7.8 4.8 64 3.0 SSW 13 13 7 7 1029.6 1029.8 0.0
05/06:30pm 12.6 9.1 5.5 62 3.3 SSW 13 15 7 8 1029.5 1029.7 0.0
05/06:00pm 13.4 9.9 5.6 59 3.7 S 13 13 7 7 1029.2 1029.4 0.0
05/05:30pm 14.8 11.8 5.9 55 4.3 S 11 13 6 7 1029.1 1029.3 0.0
05/05:00pm 15.7 12.6 5.6 51 4.9 S 11 13 6 7 1029.0 1029.2 0.0
05/04:30pm 16.2 13.5 5.5 49 5.1 SSW 9 13 5 7 1029.0 1029.2 0.0
05/04:00pm 16.2 12.8 5.8 50 5.1 SSE 13 19 7 10 1029.1 1029.3 0.0
05/03:30pm 16.5 13.5 5.8 49 5.2 SSE 11 19 6 10 1029.2 1029.4 0.0
05/03:00pm 16.0 12.6 5.9 51 4.9 SSE 13 20 7 11 1029.3 1029.5 0.0
05/02:30pm 16.2 12.5 6.1 51 4.9 SSE 15 20 8 11 1029.5 1029.7 0.0
05/02:00pm 16.0 12.7 6.2 52 4.8 SSE 13 20 7 11 1029.7 1029.9 0.0
05/01:30pm 16.4 12.8 6.8 53 4.7 ESE 15 20 8 11 1030.0 1030.1 0.0
05/01:00pm 15.2 12.3 6.5 56 4.3 ESE 11 17 6 9 1030.6 1030.7 0.0
05/12:30pm 15.1 11.5 6.7 57 4.1 ESE 15 20 8 11 1031.1 1031.2 0.0
05/12:00pm 14.6 11.4 6.7 59 3.8 SE 13 20 7 11 1031.6 1031.7 0.0
05/11:30am 13.8 9.9 7.1 64 3.3 SE 17 20 9 11 1032.1 1032.3 0.0
05/11:00am 13.9 9.8 7.7 66 3.1 ESE 19 24 10 13 1032.3 1032.5 0.0
05/10:30am 13.5 9.3 8.1 70 2.7 SE 20 26 11 14 1032.5 1032.7 0.0
05/10:00am 11.8 7.5 7.7 76 2.0 SE 20 24 11 13 1032.6 1032.8 0.0
05/09:30am 10.6 6.4 7.3 80 1.6 SE 19 22 10 12 1032.5 1032.7 0.0
05/09:00am 9.4 5.9 7.0 85 1.1 SE 15 20 8 11 1032.2 1032.4 0.0
05/08:30am 8.1 5.4 7.2 94 0.4 SE 11 15 6 8 1031.9 1032.1 0.0
05/08:00am 6.3 3.3 6.0 98 0.1 SSE 11 13 6 7 1031.8 1031.9 0.0
05/07:30am 5.5 2.0 5.4 99 0.0 S 13 15 7 8 1031.7 1031.8 0.0
05/07:00am 5.4 2.2 5.3 99 0.0 S 11 13 6 7 1031.6 1031.7 0.0
05/06:30am 5.4 1.8 5.1 98 0.1 S 13 17 7 9 1031.3 1031.4 0.0
05/06:00am 5.5 1.5 5.1 97 0.2 S 15 17 8 9 1031.0 1031.1 0.0
05/05:30am 5.8 2.2 5.2 96 0.3 S 13 15 7 8 1030.8 1030.9 0.0
05/05:00am 6.1 2.7 5.7 97 0.2 S 13 15 7 8 1030.7 1030.8 0.0
05/04:30am 5.6 2.4 5.0 96 0.3 S 11 13 6 7 1030.9 1031.0 0.0
05/04:00am 5.9 2.7 5.0 94 0.4 S 11 13 6 7 1031.1 1031.2 0.0
05/03:30am 6.8 3.7 5.7 93 0.5 SSE 11 11 6 6 1031.2 1031.3 0.0
05/03:00am 6.4 2.8 5.0 91 0.6 S 13 13 7 7 1031.2 1031.3 0.0
05/02:30am 7.2 4.9 5.5 89 0.8 SSE 7 9 4 5 1031.4 1031.5 0.0
05/02:00am 7.0 3.4 5.2 88 0.8 S 13 13 7 7 1031.6 1031.7 0.0
05/01:30am 7.1 3.1 4.9 86 1.0 S 15 17 8 9 1031.5 1031.6 0.0
05/01:00am 7.7 4.2 5.3 85 1.1 SSW 13 15 7 8 1031.5 1031.6 0.0
05/12:30am 7.8 4.2 5.1 83 1.2 SSW 13 15 7 8 1031.7 1031.8 0.0
05/12:00am 8.8 4.9 5.4 79 1.5 S 15 17 8 9 1031.8 1031.9 0.0
 
Date/Time
CST
Temp
°C
App
Temp
°C
Dew
Point
°C
Rel
Hum
%
Delta-T
°C
Wind Press
QNH
hPa
Press
MSL
hPa
Rain since
9am
mm
Dir  Spd
km/h
Gust
km/h
Spd
kts
Gust
kts
04/11:30pm 9.2 5.7 5.4 77 1.7 S 13 17 7 9 1031.9 1032.1 0.0
04/11:00pm 9.2 5.6 5.2 76 1.8 S 13 15 7 8 1032.0 1032.2 0.0
04/10:30pm 9.7 6.9 5.1 73 2.1 S 9 11 5 6 1032.1 1032.3 0.0
04/10:00pm 10.7 8.4 5.5 70 2.4 SSE 7 9 4 5 1032.0 1032.2 0.0
04/09:30pm 11.1 8.1 5.8 70 2.5 SE 11 13 6 7 1032.0 1032.2 0.0
04/09:00pm 10.3 6.1 5.7 73 2.1 SE 17 20 9 11 1031.9 1032.1 0.0
04/08:30pm 10.5 7.1 5.7 72 2.2 ESE 13 17 7 9 1031.8 1031.9 0.0
04/08:00pm 11.2 6.4 5.7 69 2.6 SSE 20 26 11 14 1031.8 1031.9 0.0
04/07:30pm 10.5 7.0 5.3 70 2.4 S 13 13 7 7 1031.6 1031.7 0.0
04/07:00pm 11.4 7.2 5.7 68 2.7 S 17 19 9 10 1031.5 1031.6 0.0
04/06:30pm 11.4 7.9 5.5 67 2.7 S 13 15 7 8 1031.2 1031.3 0.0
04/06:00pm 12.1 9.0 5.7 65 3.0 S 11 13 6 7 1031.1 1031.2 0.0
04/05:30pm 12.9 9.5 6.0 63 3.3 SSW 13 17 7 9 1031.0 1031.1 0.0
04/05:00pm 13.5 10.1 6.1 61 3.6 S 13 19 7 10 1030.9 1031.0 0.0
04/04:30pm 13.8 10.1 6.2 60 3.6 S 15 20 8 11 1030.9 1031.0 0.0
04/04:00pm 14.0 10.3 6.1 59 3.8 SSW 15 22 8 12 1031.0 1031.1 0.0
04/03:30pm 14.3 10.5 5.9 57 4.0 SSW 15 20 8 11 1031.1 1031.2 0.0
04/03:00pm 14.0 10.2 5.9 58 3.9 SSW 15 22 8 12 1031.2 1031.3 0.0
04/02:30pm 14.0 10.6 6.1 59 3.8 SW 13 20 7 11 1031.3 1031.4 0.0
04/02:00pm 13.8 10.4 5.9 59 3.8 SSW 13 19 7 10 1031.6 1031.7 0.0
04/01:30pm 13.7 10.3 6.1 60 3.6 SSW 13 20 7 11 1031.8 1031.9 0.0
04/01:00pm 13.8 10.5 6.2 60 3.7 S 13 28 7 15 1032.1 1032.3 0.0
04/12:30pm 12.5 9.1 5.7 63 3.2 S 13 17 7 9 1032.5 1032.7 0.0
04/12:00pm 12.4 9.8 6.0 65 3.0 E 9 17 5 9 1033.0 1033.2 0.0
04/11:30am 11.9 7.7 5.8 66 2.8 SE 17 22 9 12 1033.4 1033.6 0.0
04/11:00am 11.1 6.8 5.4 68 2.6 SSE 17 24 9 13 1033.6 1033.8 0.0
04/10:30am 10.4 5.9 6.2 75 2.0 SSE 19 22 10 12 1033.8 1034.0 0.0
04/10:06am 10.1 5.6 6.3 77 1.8 SSE 19 26 10 14 1033.7 1033.9 0.0
04/10:00am 10.1 5.6 6.3 77 1.8 SSE 19 30 10 16 1033.6 1033.8 0.0
04/09:30am 9.4 5.0 6.5 82 1.3 SSE 19 26 10 14 1033.3 1033.5 0.0
04/09:00am 8.5 4.2 6.8 89 0.8 SSE 19 22 10 12 1033.0 1033.2 0.0
04/08:30am 7.1 3.5 6.8 98 0.1 S 15 19 8 10 1032.8 1033.0 0.0
04/08:25am 6.8 3.2 6.7 99 0.0 S 15 19 8 10 1032.7 1032.9 0.0
04/08:00am 5.7 1.9 5.6 99 0.0 S 15 17 8 9 1032.4 1032.6 0.0
04/07:30am 4.8 0.4 4.5 98 0.1 S 17 19 9 10 1032.0 1032.2 0.0
04/07:00am 5.0 1.3 4.6 97 0.2 S 13 17 7 9 1031.7 1031.8 0.0

Other formats

Comma delimited format used in spreadsheet applications
http://www.bom.gov.au/fwo/IDS60801/IDS60801.94659.axf

JavaScript Object Notation format (JSON) in row-major order
http://www.bom.gov.au/fwo/IDS60801/IDS60801.94659.json

Data quality

Most of these data are generated automatically and are frequently updated. Quality checks on data are not normally performed. It is possible for incorrect values to appear. Refer to information at About Latest Weather Observations and please check the disclaimer before using these data.